Time;durP1;ratioP1;P1;durP2;ratioP2;P2;SDS_P1;SDS_P2;PMS_P1;PMS_P2;Temp;Humidity;BMP_temperature;BMP_pressure;BME280_temperature;BME280_humidity;BME280_pressure;Samples;Min_cycle;Max_cycle;Signal;HPM_P1;HPM_P2
2022/07/20 00:01:39;;;;;;;11.55;4.15;;;20.60;15.20;;;;;;5113288;28;20208;-70
2022/07/20 00:04:06;;;;;;;13.30;4.30;;;20.10;20.00;;;;;;5111887;28;20197;-70
2022/07/20 00:06:33;;;;;;;15.32;3.88;;;19.70;24.70;;;;;;5110348;27;20205;-71
2022/07/20 00:11:47;;;;;;;13.10;4.10;;;20.10;27.80;;;;;;5103286;28;20247;-70
2022/07/20 00:14:14;;;;;;;12.07;3.75;;;20.10;30.90;;;;;;5102507;28;20288;-71
2022/07/20 00:16:41;;;;;;;10.88;3.70;;;19.80;28.70;;;;;;5108117;28;20674;-71
2022/07/20 00:19:08;;;;;;;10.80;4.13;;;19.70;31.00;;;;;;5109494;28;20232;-70
2022/07/20 00:21:35;;;;;;;10.05;4.10;;;19.60;36.50;;;;;;5110626;28;20266;-71
2022/07/20 00:24:02;;;;;;;10.57;3.63;;;19.50;39.70;;;;;;5098710;28;20293;-71
2022/07/20 00:26:29;;;;;;;12.68;3.70;;;19.50;41.90;;;;;;5111923;28;20211;-70
2022/07/20 00:28:58;;;;;;;9.85;3.70;;;19.70;39.30;;;;;;5104526;28;20246;-71
2022/07/20 00:31:25;;;;;;;13.50;4.38;;;19.90;29.70;;;;;;5092275;28;20346;-70
2022/07/20 00:33:52;;;;;;;11.80;4.47;;;19.90;29.10;;;;;;5096555;28;20334;-71
2022/07/20 00:36:20;;;;;;;11.30;4.18;;;19.80;35.30;;;;;;5112693;28;20581;-70
2022/07/20 00:38:47;;;;;;;9.50;3.72;;;19.60;44.50;;;;;;5111387;28;20224;-70
2022/07/20 00:41:14;;;;;;;6.68;3.58;;;19.50;46.10;;;;;;5112522;28;20205;-70
2022/07/20 00:44:00;;;;;;;10.40;3.50;;;19.60;44.10;;;;;;5105627;28;20708;-70
2022/07/20 00:46:28;;;;;;;9.88;3.75;;;19.30;53.80;;;;;;5113236;28;20237;-70
2022/07/20 00:48:55;;;;;;;11.82;4.15;;;18.80;58.00;;;;;;5108234;28;20649;-70
2022/07/20 00:51:23;;;;;;;10.93;4.32;;;18.70;57.70;;;;;;5110422;28;20286;-71
2022/07/20 00:53:51;;;;;;;9.30;4.05;;;18.60;59.50;;;;;;5111105;28;20292;-70
2022/07/20 00:56:19;;;;;;;8.00;3.42;;;18.50;55.70;;;;;;5112486;27;20287;-70
2022/07/20 00:58:46;;;;;;;13.82;4.07;;;18.60;52.60;;;;;;5105979;28;20205;-70
2022/07/20 01:01:15;;;;;;;13.25;4.05;;;18.80;49.50;;;;;;5111846;28;20236;-70
2022/07/20 01:03:43;;;;;;;9.40;4.00;;;18.90;47.20;;;;;;5111185;28;20197;-70
2022/07/20 01:06:10;;;;;;;8.65;3.72;;;19.00;47.60;;;;;;5099749;28;20461;-70
2022/07/20 01:08:37;;;;;;;12.38;3.58;;;18.90;48.10;;;;;;5110477;28;20201;-70
2022/07/20 01:11:04;;;;;;;8.60;3.55;;;18.80;45.40;;;;;;5110902;28;20258;-70
2022/07/20 01:13:31;;;;;;;10.15;3.35;;;19.00;43.20;;;;;;5102227;28;20603;-70
2022/07/20 01:15:58;;;;;;;9.13;3.55;;;19.10;42.80;;;;;;5106161;28;20193;-70
2022/07/20 01:18:27;;;;;;;8.40;3.13;;;19.10;42.00;;;;;;5105911;27;20236;-70
2022/07/20 01:21:03;;;;;;;11.27;4.00;;;19.00;45.20;;;;;;5111390;28;20262;-71
2022/07/20 01:23:30;;;;;;;9.23;3.63;;;18.90;45.70;;;;;;5111133;28;20208;-70
2022/07/20 01:25:57;;;;;;;8.05;3.63;;;18.80;49.70;;;;;;5096838;28;20710;-70
2022/07/20 01:28:25;;;;;;;8.85;3.67;;;18.60;56.90;;;;;;5094483;28;20206;-70
2022/07/20 01:30:52;;;;;;;11.82;3.83;;;18.50;55.10;;;;;;5108413;28;20302;-71
2022/07/20 01:33:20;;;;;;;7.18;3.38;;;18.50;55.10;;;;;;5106881;28;20640;-70
2022/07/20 01:35:47;;;;;;;10.23;3.80;;;18.50;53.90;;;;;;5100718;28;20628;-70
2022/07/20 01:38:15;;;;;;;10.30;3.70;;;18.30;53.30;;;;;;5110127;28;20204;-70
2022/07/20 01:40:42;;;;;;;6.95;3.55;;;18.30;53.70;;;;;;5110044;28;20250;-70
2022/07/20 01:43:09;;;;;;;5.55;3.50;;;18.20;54.00;;;;;;5110550;28;20200;-70
2022/07/20 01:45:36;;;;;;;6.95;3.45;;;18.20;55.40;;;;;;5109978;28;20606;-70
2022/07/20 01:48:04;;;;;;;6.93;3.97;;;18.20;53.00;;;;;;5108490;28;20254;-70
2022/07/20 01:50:31;;;;;;;8.50;4.00;;;18.30;53.80;;;;;;5106942;28;20204;-70
2022/07/20 01:52:58;;;;;;;8.82;3.75;;;18.30;53.80;;;;;;5109361;28;20201;-70
2022/07/20 01:55:26;;;;;;;8.63;3.47;;;18.20;54.80;;;;;;5097092;28;20259;-70
2022/07/20 01:57:53;;;;;;;6.90;3.65;;;18.10;58.90;;;;;;5100176;28;20197;-69
2022/07/20 02:00:21;;;;;;;7.47;3.85;;;17.90;58.40;;;;;;5109239;28;20197;-70
2022/07/20 02:02:48;;;;;;;6.93;3.70;;;17.60;64.40;;;;;;5111072;28;20606;-69
2022/07/20 02:05:15;;;;;;;9.07;4.03;;;18.00;62.80;;;;;;5095032;28;20279;-70
2022/07/20 02:07:42;;;;;;;12.77;4.05;;;18.00;58.00;;;;;;5109915;28;20659;-70
2022/07/20 02:10:11;;;;;;;9.75;4.25;;;18.00;58.80;;;;;;5108161;28;20250;-70
2022/07/20 02:12:40;;;;;;;5.70;3.70;;;17.90;59.30;;;;;;5108558;28;20636;-70
2022/07/20 02:15:09;;;;;;;11.93;3.78;;;17.40;65.90;;;;;;5092390;28;20193;-69
2022/07/20 02:17:36;;;;;;;8.63;3.88;;;17.40;69.20;;;;;;5109950;28;20614;-70
2022/07/20 02:20:05;;;;;;;11.18;3.90;;;17.30;73.70;;;;;;5105117;28;20253;-70
2022/07/20 02:22:32;;;;;;;6.72;3.83;;;17.40;78.00;;;;;;5101958;28;20258;-70
2022/07/20 02:24:59;;;;;;;5.88;3.67;;;17.40;81.60;;;;;;5109790;28;20644;-70
2022/07/20 02:27:26;;;;;;;9.35;4.13;;;17.40;86.50;;;;;;5109917;28;20197;-70
2022/07/20 02:29:54;;;;;;;6.93;3.70;;;17.30;89.90;;;;;;5094472;28;20258;-70
2022/07/20 02:32:21;;;;;;;13.13;4.40;;;17.30;94.50;;;;;;5108692;28;20303;-70
2022/07/20 02:34:48;;;;;;;5.60;4.18;;;17.40;91.70;;;;;;5110052;28;20205;-70
2022/07/20 02:37:15;;;;;;;6.82;4.03;;;17.30;92.10;;;;;;5108995;28;20228;-70
2022/07/20 02:39:42;;;;;;;8.10;4.00;;;17.30;92.90;;;;;;5102151;28;20634;-69
2022/07/20 02:42:09;;;;;;;7.85;4.00;;;17.40;91.60;;;;;;5092014;28;20251;-70
2022/07/20 02:44:36;;;;;;;7.65;4.05;;;17.50;89.70;;;;;;5109669;28;20246;-70
2022/07/20 02:47:05;;;;;;;11.93;4.43;;;17.50;89.60;;;;;;5108989;28;20268;-70
2022/07/20 02:49:32;;;;;;;6.38;3.83;;;17.40;89.60;;;;;;5092883;28;20310;-70
2022/07/20 02:51:59;;;;;;;7.88;4.40;;;17.30;90.90;;;;;;5097673;28;20221;-70
2022/07/20 02:54:26;;;;;;;11.45;4.20;;;17.30;92.70;;;;;;5100654;27;20266;-70
2022/07/20 02:56:52;;;;;;;8.57;3.95;;;17.20;95.50;;;;;;5100715;28;20548;-70
2022/07/20 02:59:19;;;;;;;9.65;4.13;;;17.10;96.80;;;;;;5112922;28;20250;-65
2022/07/20 03:01:46;;;;;;;7.97;3.67;;;16.90;97.70;;;;;;5114014;28;20205;-65
2022/07/20 03:04:15;;;;;;;8.05;4.20;;;17.10;97.70;;;;;;5110123;28;20229;-70
2022/07/20 03:06:42;;;;;;;7.65;4.22;;;17.40;95.60;;;;;;5114546;28;20304;-70
2022/07/20 03:09:09;;;;;;;9.43;4.55;;;17.70;93.50;;;;;;5112793;28;20197;-70
2022/07/20 03:11:36;;;;;;;8.27;4.20;;;17.40;93.30;;;;;;5114176;28;20212;-70
2022/07/20 03:14:03;;;;;;;7.20;4.10;;;17.30;93.50;;;;;;5107566;28;20205;-70
2022/07/20 03:16:30;;;;;;;5.65;3.88;;;17.50;94.40;;;;;;5109693;28;20228;-69
2022/07/20 03:18:57;;;;;;;10.45;3.90;;;17.70;90.70;;;;;;5105310;28;20560;-69
2022/07/20 03:21:25;;;;;;;6.43;3.67;;;17.80;83.50;;;;;;5107051;28;20627;-70
2022/07/20 03:23:52;;;;;;;4.38;3.60;;;17.80;82.80;;;;;;5112042;28;20201;-69
2022/07/20 03:26:21;;;;;;;6.78;3.97;;;17.70;80.00;;;;;;5113908;28;20197;-69
2022/07/20 03:28:48;;;;;;;7.53;4.03;;;17.60;79.60;;;;;;5113470;28;20658;-69
2022/07/20 03:31:16;;;;;;;6.07;3.97;;;17.40;84.00;;;;;;5106291;28;20229;-69
2022/07/20 03:33:43;;;;;;;10.85;4.63;;;17.00;91.80;;;;;;5111205;28;20197;-70
2022/07/20 03:36:10;;;;;;;7.95;4.22;;;16.90;95.60;;;;;;5113613;28;20571;-69
2022/07/20 03:38:39;;;;;;;8.68;4.25;;;16.80;99.90;;;;;;5112569;28;20254;-69
2022/07/20 03:41:06;;;;;;;7.88;4.43;;;16.80;99.90;;;;;;5113395;28;20197;-69
2022/07/20 03:43:33;;;;;;;8.40;4.30;;;16.90;99.90;;;;;;5113349;28;20263;-69
2022/07/20 03:46:00;;;;;;;8.88;4.18;;;17.00;99.90;;;;;;5112198;28;20254;-70
2022/07/20 03:48:27;;;;;;;8.48;4.30;;;17.30;99.90;;;;;;5107423;28;20241;-69
2022/07/20 03:50:54;;;;;;;12.25;4.63;;;17.40;98.90;;;;;;5092171;28;20242;-70
2022/07/20 03:53:21;;;;;;;7.93;4.00;;;17.40;95.50;;;;;;5092359;28;20202;-69
2022/07/20 03:55:49;;;;;;;6.10;4.22;;;17.80;94.50;;;;;;5093570;28;20193;-69
2022/07/20 03:58:16;;;;;;;7.35;3.90;;;17.80;91.90;;;;;;5093059;28;20209;-69
2022/07/20 04:00:43;;;;;;;8.75;4.63;;;17.90;93.40;;;;;;5093632;28;20281;-70
2022/07/20 04:03:10;;;;;;;8.35;4.65;;;18.10;91.20;;;;;;5091312;28;20263;-70
2022/07/20 04:05:37;;;;;;;6.68;4.00;;;18.00;89.20;;;;;;5102291;28;20205;-69
2022/07/20 04:08:08;;;;;;;6.85;4.05;;;18.30;90.00;;;;;;5106251;28;20197;-69
2022/07/20 04:10:35;;;;;;;5.90;3.72;;;18.40;85.30;;;;;;5113101;28;20211;-69
2022/07/20 04:13:03;;;;;;;9.32;4.18;;;18.60;82.20;;;;;;5105163;28;20294;-72
2022/07/20 04:15:30;;;;;;;9.05;4.20;;;18.70;80.80;;;;;;5102054;28;20198;-71
2022/07/20 04:17:57;;;;;;;11.80;4.35;;;18.70;80.30;;;;;;5092238;28;20190;-71
2022/07/20 04:20:24;;;;;;;9.15;3.95;;;19.30;76.60;;;;;;5113422;28;20196;-72
2022/07/20 04:22:51;;;;;;;8.48;4.50;;;19.40;79.90;;;;;;5109154;28;20244;-71
2022/07/20 04:25:19;;;;;;;11.30;4.03;;;19.10;78.80;;;;;;5092671;28;20201;-71
2022/07/20 04:27:46;;;;;;;12.20;4.25;;;19.10;85.50;;;;;;5091629;28;20324;-72
2022/07/20 04:30:15;;;;;;;10.38;4.60;;;19.10;78.20;;;;;;5093080;28;20275;-71
2022/07/20 04:32:42;;;;;;;12.43;5.07;;;19.40;67.10;;;;;;5092684;28;20228;-71
2022/07/20 04:35:10;;;;;;;16.83;5.40;;;19.50;69.30;;;;;;5092323;28;20233;-71
2022/07/20 04:37:38;;;;;;;24.35;5.20;;;19.70;67.80;;;;;;5092592;28;20623;-71
2022/07/20 04:40:06;;;;;;;21.65;5.57;;;19.80;63.00;;;;;;5111548;28;20254;-71
2022/07/20 04:42:33;;;;;;;19.77;5.53;;;19.90;76.50;;;;;;5111798;28;20728;-71
2022/07/20 04:45:00;;;;;;;22.25;5.57;;;20.00;84.90;;;;;;5111914;28;20567;-71
2022/07/20 04:47:29;;;;;;;31.85;7.68;;;19.90;83.10;;;;;;5092920;28;20542;-72
2022/07/20 04:49:56;;;;;;;28.15;5.80;;;20.00;78.80;;;;;;5091439;28;20194;-71
2022/07/20 04:52:23;;;;;;;29.60;6.05;;;20.10;64.10;;;;;;5090892;28;20233;-72
2022/07/20 04:54:50;;;;;;;33.13;7.13;;;20.50;64.10;;;;;;5092630;28;20241;-71
2022/07/20 04:57:17;;;;;;;28.95;6.72;;;20.90;63.90;;;;;;5092627;28;20197;-71
2022/07/20 04:59:44;;;;;;;40.38;7.13;;;20.80;70.80;;;;;;5092428;28;20619;-71
2022/07/20 05:02:11;;;;;;;50.03;9.27;;;20.50;78.90;;;;;;5091968;28;20258;-71
2022/07/20 05:04:40;;;;;;;41.95;8.02;;;20.60;83.00;;;;;;5092195;28;20717;-71
2022/07/20 05:07:06;;;;;;;40.05;8.50;;;20.70;78.70;;;;;;5103019;28;20250;-71
2022/07/20 05:09:33;;;;;;;36.53;7.07;;;20.70;78.50;;;;;;5111422;28;20235;-71
2022/07/20 05:12:00;;;;;;;38.95;7.07;;;20.80;80.30;;;;;;5111708;28;20217;-71
2022/07/20 05:14:27;;;;;;;30.30;6.50;;;20.80;75.00;;;;;;5111590;28;20197;-71
2022/07/20 05:16:54;;;;;;;21.00;5.72;;;21.00;71.90;;;;;;5110399;28;20300;-71
2022/07/20 05:19:21;;;;;;;25.25;5.45;;;20.90;64.20;;;;;;5098837;28;20209;-71
2022/07/20 05:21:50;;;;;;;24.73;5.63;;;21.10;66.90;;;;;;5090632;28;20201;-72
2022/07/20 05:24:17;;;;;;;17.60;5.72;;;21.30;64.60;;;;;;5091132;28;20651;-71
2022/07/20 05:26:44;;;;;;;19.92;5.40;;;21.20;65.80;;;;;;5091964;28;20247;-71
2022/07/20 05:29:11;;;;;;;18.20;4.65;;;21.10;71.40;;;;;;5091100;28;20231;-71
2022/07/20 05:31:38;;;;;;;20.98;6.07;;;21.50;63.00;;;;;;5091077;28;20202;-71
2022/07/20 05:34:05;;;;;;;21.73;5.60;;;22.20;64.30;;;;;;5091230;28;20259;-71
2022/07/20 05:36:32;;;;;;;38.75;7.57;;;22.40;60.30;;;;;;5092207;28;20284;-71
2022/07/20 05:39:00;;;;;;;42.95;8.25;;;23.40;58.50;;;;;;5091718;28;20197;-71
2022/07/20 05:41:27;;;;;;;31.13;6.82;;;23.70;50.00;;;;;;5102802;28;20631;-72
2022/07/20 05:43:54;;;;;;;25.40;5.93;;;23.60;53.00;;;;;;5110532;28;20201;-72
2022/07/20 05:46:21;;;;;;;15.73;4.55;;;24.40;41.30;;;;;;5110752;28;20244;-72
2022/07/20 05:48:48;;;;;;;23.83;5.40;;;25.20;27.60;;;;;;5099716;28;20289;-72
2022/07/20 05:51:15;;;;;;;15.52;4.70;;;24.90;28.20;;;;;;5090610;28;20198;-72
2022/07/20 05:53:42;;;;;;;15.15;4.88;;;24.70;29.10;;;;;;5090389;28;20294;-72
2022/07/20 05:56:10;;;;;;;27.15;5.28;;;25.40;29.10;;;;;;5091773;28;20193;-72
2022/07/20 05:58:38;;;;;;;20.95;4.95;;;24.90;29.30;;;;;;5096551;28;20576;-72
2022/07/20 06:01:05;;;;;;;12.82;4.97;;;24.40;32.00;;;;;;5111120;28;20197;-72
2022/07/20 06:03:32;;;;;;;11.68;4.38;;;24.10;35.70;;;;;;5110371;28;20269;-72
2022/07/20 06:05:59;;;;;;;17.15;4.68;;;23.90;34.50;;;;;;5111891;28;20284;-72
2022/07/20 06:08:26;;;;;;;12.32;4.65;;;24.10;38.10;;;;;;5110399;28;20237;-72
2022/07/20 06:10:53;;;;;;;12.63;4.78;;;24.10;36.90;;;;;;5111343;28;20201;-72
2022/07/20 06:13:22;;;;;;;15.95;4.40;;;23.90;35.90;;;;;;5110897;28;20229;-79
2022/07/20 06:15:49;;;;;;;14.75;5.07;;;23.80;36.40;;;;;;5110096;28;20197;-67
2022/07/20 06:18:16;;;;;;;10.98;4.50;;;23.70;37.50;;;;;;5110282;28;20200;-67
2022/07/20 06:20:42;;;;;;;10.15;4.45;;;23.70;37.90;;;;;;5111579;28;20269;-78
2022/07/20 06:23:09;;;;;;;7.55;4.22;;;24.00;33.30;;;;;;5109968;28;20212;-78
2022/07/20 06:25:36;;;;;;;10.00;4.28;;;24.20;30.70;;;;;;5111246;28;20669;-79
2022/07/20 06:28:03;;;;;;;8.15;3.97;;;24.30;31.00;;;;;;5114255;28;20288;-79
2022/07/20 06:30:32;;;;;;;9.65;4.78;;;24.50;29.50;;;;;;5114777;28;20197;-78
2022/07/20 06:32:59;;;;;;;15.40;4.68;;;24.60;27.70;;;;;;5109183;28;20229;-78
2022/07/20 06:35:26;;;;;;;12.27;4.25;;;24.70;26.70;;;;;;5095464;28;20240;-78
2022/07/20 06:37:53;;;;;;;10.30;4.63;;;24.90;27.10;;;;;;5094014;28;20565;-79
2022/07/20 06:40:20;;;;;;;10.65;4.50;;;25.20;29.70;;;;;;5095403;28;20198;-79
2022/07/20 06:42:47;;;;;;;9.70;4.40;;;25.20;27.20;;;;;;5093888;28;20205;-78
2022/07/20 06:45:14;;;;;;;8.23;3.75;;;25.20;26.80;;;;;;5093097;28;20731;-79
2022/07/20 06:47:43;;;;;;;9.70;4.55;;;25.40;24.90;;;;;;5093935;28;20201;-79
2022/07/20 06:50:10;;;;;;;11.30;4.72;;;25.40;25.50;;;;;;5094899;28;20209;-79
2022/07/20 06:52:37;;;;;;;9.70;4.40;;;25.70;24.90;;;;;;5093691;28;20218;-79
2022/07/20 06:55:04;;;;;;;14.07;4.30;;;26.10;26.60;;;;;;5094770;28;20248;-79
2022/07/20 06:57:31;;;;;;;6.95;4.20;;;26.50;25.60;;;;;;5094325;28;20206;-79
2022/07/20 06:59:58;;;;;;;11.13;4.80;;;26.50;28.40;;;;;;5094478;28;20285;-78
2022/07/20 07:02:25;;;;;;;10.93;3.90;;;27.10;24.50;;;;;;5094150;28;20259;-79
2022/07/20 07:04:54;;;;;;;7.53;4.45;;;26.80;22.80;;;;;;5094633;28;20221;-79
2022/07/20 07:07:21;;;;;;;6.72;3.70;;;27.20;24.10;;;;;;5094647;28;20198;-79
2022/07/20 07:09:48;;;;;;;5.03;4.18;;;27.30;22.70;;;;;;5096400;28;20206;-78
2022/07/20 07:12:15;;;;;;;14.73;4.38;;;27.60;21.40;;;;;;5114660;28;20200;-78
2022/07/20 07:14:42;;;;;;;8.20;4.32;;;27.30;21.90;;;;;;5112079;28;20225;-79
2022/07/20 07:17:09;;;;;;;9.70;4.47;;;27.40;18.90;;;;;;5094189;28;20204;-79
2022/07/20 07:19:36;;;;;;;6.82;4.30;;;27.40;18.10;;;;;;5094984;28;20197;-79
2022/07/20 07:22:05;;;;;;;7.00;3.65;;;27.90;16.80;;;;;;5091956;28;20226;-78
2022/07/20 07:24:31;;;;;;;6.88;3.67;;;28.20;14.30;;;;;;5094637;28;20241;-78
2022/07/20 07:27:00;;;;;;;7.07;3.90;;;28.90;9.30;;;;;;5092898;28;20198;-79
2022/07/20 07:29:27;;;;;;;7.28;3.85;;;29.10;7.90;;;;;;5093549;28;20201;-79
2022/07/20 07:31:58;;;;;;;5.15;3.88;;;29.00;7.50;;;;;;5092932;28;20201;-78
2022/07/20 07:34:26;;;;;;;8.45;4.13;;;29.20;6.90;;;;;;5094391;28;20760;-78
2022/07/20 07:36:53;;;;;;;3.85;3.17;;;29.50;4.60;;;;;;5093669;28;20206;-78
2022/07/20 07:39:21;;;;;;;7.15;3.38;;;29.60;3.80;;;;;;5092007;28;20290;-79
2022/07/20 07:41:48;;;;;;;5.75;3.85;;;29.60;4.30;;;;;;5093434;28;20468;-78
2022/07/20 07:44:15;;;;;;;4.22;3.50;;;30.00;2.80;;;;;;5093597;28;20627;-78
2022/07/20 07:46:43;;;;;;;4.50;3.78;;;30.10;2.30;;;;;;5093044;28;20709;-78
2022/07/20 07:49:10;;;;;;;4.95;3.30;;;30.20;1.90;;;;;;5097356;28;20536;-79
2022/07/20 07:51:37;;;;;;;6.22;3.50;;;30.30;1.70;;;;;;5113737;28;20250;-78
2022/07/20 07:54:05;;;;;;;4.82;3.60;;;30.50;1.00;;;;;;5109815;28;20229;-78
2022/07/20 07:56:33;;;;;;;4.35;3.80;;;30.30;2.40;;;;;;5109632;28;20689;-78
2022/07/20 07:59:00;;;;;;;6.05;3.53;;;30.30;1.70;;;;;;5099979;28;20684;-79
2022/07/20 08:01:29;;;;;;;9.75;3.60;;;30.70;1.70;;;;;;5092197;28;20252;-79
2022/07/20 08:03:56;;;;;;;5.57;3.28;;;30.50;1.70;;;;;;5093802;28;20651;-79
2022/07/20 08:06:23;;;;;;;8.02;4.20;;;30.80;1.40;;;;;;5097778;28;20209;-79
2022/07/20 08:08:50;;;;;;;8.52;4.07;;;30.60;2.00;;;;;;5101685;28;20205;-79
2022/07/20 08:11:17;;;;;;;6.13;3.60;;;31.10;1.00;;;;;;5100358;28;20197;-78
2022/07/20 08:13:46;;;;;;;5.47;3.83;;;30.90;1.60;;;;;;5102795;28;20218;-79
2022/07/20 08:16:14;;;;;;;8.50;3.80;;;31.10;1.40;;;;;;5099883;28;20213;-78
2022/07/20 08:18:41;;;;;;;6.43;4.03;;;31.40;1.00;;;;;;5109675;28;20275;-79
2022/07/20 08:21:09;;;;;;;6.35;3.75;;;31.30;1.00;;;;;;5100924;28;20545;-79
2022/07/20 08:23:36;;;;;;;7.22;3.60;;;31.30;1.00;;;;;;5091986;28;20245;-79
2022/07/20 08:26:03;;;;;;;5.20;3.35;;;31.40;1.00;;;;;;5093028;28;20248;-79
2022/07/20 08:28:31;;;;;;;6.70;3.35;;;31.70;1.00;;;;;;5093068;28;20198;-79
2022/07/20 08:31:00;;;;;;;4.90;3.55;;;31.70;1.00;;;;;;5092387;28;20198;-79
2022/07/20 08:33:27;;;;;;;5.55;3.85;;;31.60;1.00;;;;;;5093438;28;20316;-79
2022/07/20 08:35:54;;;;;;;5.70;3.30;;;31.90;1.00;;;;;;5092293;28;20201;-79
2022/07/20 08:38:21;;;;;;;7.30;3.60;;;32.40;1.00;;;;;;5091433;28;20193;-79
2022/07/20 08:40:48;;;;;;;6.95;3.45;;;32.30;1.00;;;;;;5092564;28;20728;-78
2022/07/20 08:43:16;;;;;;;7.20;3.70;;;32.30;1.00;;;;;;5093056;28;20570;-78
2022/07/20 08:45:43;;;;;;;4.38;3.22;;;32.40;1.00;;;;;;5092889;28;20648;-79
2022/07/20 08:48:16;;;;;;;5.05;3.63;;;32.30;1.00;;;;;;5092948;28;20236;-79
2022/07/20 08:50:44;;;;;;;4.97;3.60;;;32.50;1.00;;;;;;5092502;28;20288;-79
2022/07/20 08:53:11;;;;;;;4.88;3.13;;;32.50;1.00;;;;;;5091004;28;20221;-79
2022/07/20 08:55:38;;;;;;;5.13;3.35;;;32.60;1.00;;;;;;5092461;28;20656;-79
2022/07/20 08:58:05;;;;;;;6.38;3.58;;;33.00;1.00;;;;;;5092221;28;20271;-79
2022/07/20 09:00:32;;;;;;;7.78;3.30;;;33.10;1.00;;;;;;5091466;28;20197;-79
2022/07/20 09:03:01;;;;;;;7.65;3.60;;;33.20;1.00;;;;;;5102252;28;20197;-78
2022/07/20 09:05:32;;;;;;;6.13;3.28;;;33.90;1.00;;;;;;5092744;28;20587;-79
2022/07/20 09:08:01;;;;;;;4.25;3.15;;;34.20;1.00;;;;;;5097510;28;20243;-78
2022/07/20 09:10:30;;;;;;;6.68;3.40;;;34.50;1.00;;;;;;5106481;28;20222;-78
2022/07/20 09:12:59;;;;;;;7.05;3.75;;;34.70;1.00;;;;;;5103219;28;20225;-79
2022/07/20 09:15:30;;;;;;;6.45;3.35;;;34.70;1.00;;;;;;5110758;28;20276;-79
2022/07/20 09:18:12;;;;;;;5.38;3.30;;;35.20;1.00;;;;;;5110647;28;20258;-78
2022/07/20 09:20:42;;;;;;;4.15;3.72;;;35.50;1.00;;;;;;5100791;28;20254;-79
2022/07/20 09:23:11;;;;;;;7.28;3.30;;;36.00;1.00;;;;;;5111709;28;20787;-79
2022/07/20 09:25:49;;;;;;;5.78;3.60;;;36.40;1.00;;;;;;5098292;28;20279;-79
2022/07/20 09:28:17;;;;;;;8.40;3.67;;;36.10;1.00;;;;;;5092095;28;20238;-79
2022/07/20 09:30:50;;;;;;;6.38;3.53;;;36.50;1.00;;;;;;5092068;28;20259;-78
2022/07/20 09:33:24;;;;;;;5.88;3.80;;;36.50;1.00;;;;;;5091029;28;20286;-78
2022/07/20 09:35:52;;;;;;;6.35;3.50;;;36.50;1.00;;;;;;5092339;28;20289;-78
2022/07/20 09:38:20;;;;;;;6.97;3.53;;;36.40;1.00;;;;;;5090341;28;20201;-78
2022/07/20 09:40:47;;;;;;;6.95;3.53;;;36.90;1.00;;;;;;5091194;28;20267;-79
2022/07/20 09:43:32;;;;;;;7.68;3.47;;;37.00;1.00;;;;;;5091381;28;20267;-79
2022/07/20 09:46:11;;;;;;;7.85;3.63;;;37.70;1.00;;;;;;5091747;28;20250;-78
2022/07/20 09:48:43;;;;;;;8.88;3.60;;;37.10;1.00;;;;;;5090826;28;20202;-79
2022/07/20 09:51:26;;;;;;;4.43;3.60;;;37.40;1.00;;;;;;5091294;28;20240;-78
2022/07/20 09:53:56;;;;;;;4.70;3.55;;;37.00;1.00;;;;;;5098157;28;20313;-78
2022/07/20 09:56:25;;;;;;;3.97;3.30;;;37.50;1.00;;;;;;5111898;28;20242;-78
2022/07/20 09:58:53;;;;;;;4.05;3.50;;;37.40;1.00;;;;;;5105335;28;20284;-79
2022/07/20 10:01:22;;;;;;;6.30;3.70;;;37.40;1.00;;;;;;5110802;28;20189;-79
2022/07/20 10:03:53;;;;;;;3.95;3.55;;;37.90;1.00;;;;;;5103489;28;20266;-78
2022/07/20 10:06:21;;;;;;;3.75;3.45;;;37.50;1.00;;;;;;5091809;28;20609;-79
2022/07/20 10:08:51;;;;;;;4.57;3.40;;;37.60;1.00;;;;;;5091755;28;20201;-78
2022/07/20 10:11:20;;;;;;;5.65;3.40;;;37.40;1.00;;;;;;5088780;28;20306;-79
2022/07/20 10:13:48;;;;;;;9.10;3.90;;;37.40;1.00;;;;;;5091445;28;20310;-79
2022/07/20 10:16:28;;;;;;;5.32;3.67;;;38.20;1.00;;;;;;5090759;28;20209;-79
2022/07/20 10:18:56;;;;;;;4.60;3.65;;;38.40;1.00;;;;;;5090898;28;20205;-78
2022/07/20 10:21:38;;;;;;;5.40;3.55;;;38.20;1.00;;;;;;5090260;28;20270;-79
2022/07/20 10:24:18;;;;;;;10.30;4.05;;;37.80;1.00;;;;;;5089912;28;20667;-79
2022/07/20 10:26:46;;;;;;;6.30;3.78;;;38.10;1.00;;;;;;5091329;28;20193;-79
2022/07/20 10:29:29;;;;;;;6.50;3.72;;;38.40;1.00;;;;;;5090367;28;20202;-78
2022/07/20 10:31:58;;;;;;;7.03;3.78;;;38.10;1.00;;;;;;5090781;28;20288;-77
2022/07/20 10:34:36;;;;;;;7.75;3.60;;;38.30;1.00;;;;;;5104147;28;20220;-77
2022/07/20 10:37:26;;;;;;;6.10;3.70;;;38.30;1.00;;;;;;5109972;28;20201;-77
2022/07/20 10:40:04;;;;;;;9.75;3.97;;;38.40;1.00;;;;;;5106280;28;20197;-77
2022/07/20 10:42:33;;;;;;;4.47;3.47;;;38.50;1.00;;;;;;5109907;28;20250;-77
2022/07/20 10:45:31;;;;;;;6.22;3.80;;;39.20;1.00;;;;;;5090437;28;20284;-77
2022/07/20 10:48:01;;;;;;;6.78;3.95;;;38.80;1.00;;;;;;5077833;28;20619;-77
2022/07/20 10:50:31;;;;;;;4.72;3.88;;;39.20;1.00;;;;;;5091174;28;20381;-77
2022/07/20 10:53:00;;;;;;;5.00;3.75;;;39.30;1.00;;;;;;5088851;28;20580;-77
2022/07/20 10:55:51;;;;;;;8.80;3.97;;;38.70;1.00;;;;;;5091394;28;20266;-77
2022/07/20 10:58:20;;;;;;;8.05;3.75;;;38.60;1.00;;;;;;5091090;28;20202;-77
2022/07/20 11:00:50;;;;;;;7.07;3.83;;;39.10;1.00;;;;;;5090747;28;20301;-77
2022/07/20 11:03:20;;;;;;;4.25;3.75;;;39.10;1.00;;;;;;5090240;28;20205;-77
2022/07/20 11:05:49;;;;;;;4.47;3.60;;;39.00;1.00;;;;;;5091109;28;20193;-77
2022/07/20 11:08:17;;;;;;;5.45;3.88;;;39.00;1.00;;;;;;5090938;28;20241;-77
2022/07/20 11:10:44;;;;;;;6.43;3.70;;;39.10;1.00;;;;;;5091324;28;20208;-77
2022/07/20 11:13:13;;;;;;;4.70;3.50;;;38.60;1.00;;;;;;5091583;28;20214;-76
2022/07/20 11:15:45;;;;;;;4.97;4.15;;;39.10;1.00;;;;;;5095023;28;20205;-77
2022/07/20 11:18:14;;;;;;;6.13;3.80;;;39.20;1.00;;;;;;5094734;28;20201;-76
2022/07/20 11:20:47;;;;;;;8.57;4.03;;;39.30;1.00;;;;;;5094824;28;20243;-78
2022/07/20 11:23:14;;;;;;;4.85;3.70;;;39.60;1.00;;;;;;5092664;28;20579;-77
2022/07/20 11:25:46;;;;;;;5.25;4.00;;;39.70;1.00;;;;;;5108843;28;20296;-77
2022/07/20 11:28:14;;;;;;;6.78;4.07;;;39.60;1.00;;;;;;5106464;28;20249;-76
2022/07/20 11:30:42;;;;;;;6.53;3.50;;;39.00;1.00;;;;;;5099829;28;20202;-77
2022/07/20 11:33:10;;;;;;;4.68;4.07;;;39.10;1.00;;;;;;5106164;28;20250;-77
2022/07/20 11:35:38;;;;;;;4.28;3.80;;;38.90;1.00;;;;;;5101376;28;20588;-76
2022/07/20 11:38:05;;;;;;;7.03;4.53;;;39.40;1.00;;;;;;5105441;28;20212;-77
2022/07/20 11:40:32;;;;;;;5.10;4.00;;;39.30;1.00;;;;;;5103214;28;20293;-77
2022/07/20 11:43:10;;;;;;;6.97;4.35;;;39.50;1.00;;;;;;5107313;27;20197;-76
2022/07/20 11:45:38;;;;;;;6.88;3.72;;;39.60;1.00;;;;;;5099727;28;20209;-77
2022/07/20 11:48:20;;;;;;;6.63;3.92;;;39.90;1.00;;;;;;5107659;28;20698;-76
2022/07/20 11:50:47;;;;;;;4.93;3.83;;;39.10;1.00;;;;;;5104171;28;20201;-77
2022/07/20 11:53:25;;;;;;;7.20;4.30;;;39.50;1.00;;;;;;5100517;28;20202;-77
2022/07/20 11:55:52;;;;;;;4.75;3.90;;;39.70;1.00;;;;;;5103643;28;20228;-77
2022/07/20 11:58:26;;;;;;;6.88;4.03;;;39.90;1.00;;;;;;5101868;28;20285;-77
2022/07/20 12:00:55;;;;;;;7.35;4.20;;;39.80;1.00;;;;;;5103420;28;20263;-77
2022/07/20 12:03:25;;;;;;;5.13;4.18;;;39.60;1.00;;;;;;5100114;28;20193;-76
2022/07/20 12:05:53;;;;;;;5.50;4.30;;;40.00;1.00;;;;;;5110605;28;20248;-76
2022/07/20 12:08:22;;;;;;;6.38;4.38;;;40.10;1.00;;;;;;5099215;28;20262;-76
2022/07/20 12:10:49;;;;;;;5.72;3.85;;;39.90;1.00;;;;;;5106032;28;20228;-76
2022/07/20 12:13:17;;;;;;;5.53;4.00;;;40.40;1.00;;;;;;5097129;28;20225;-76
2022/07/20 12:16:00;;;;;;;8.52;3.95;;;39.90;1.00;;;;;;5101451;28;20226;-76
2022/07/20 12:18:44;;;;;;;6.63;4.32;;;40.00;1.00;;;;;;5104659;28;20205;-77
2022/07/20 12:21:13;;;;;;;5.13;4.45;;;39.70;1.00;;;;;;5105674;28;20205;-77
2022/07/20 12:23:43;;;;;;;9.55;4.60;;;39.90;1.00;;;;;;5102405;28;20209;-76
2022/07/20 12:26:28;;;;;;;6.03;3.95;;;39.40;1.00;;;;;;5098938;28;20255;-76
2022/07/20 12:28:58;;;;;;;5.53;3.65;;;39.50;1.00;;;;;;5103233;28;20250;-77
2022/07/20 12:31:28;;;;;;;6.25;4.10;;;39.70;1.00;;;;;;5102193;28;20201;-76
2022/07/20 12:34:16;;;;;;;4.50;4.10;;;39.70;1.00;;;;;;5103858;28;20835;-76
2022/07/20 12:36:44;;;;;;;6.00;4.30;;;39.20;1.00;;;;;;5092621;28;20259;-77
2022/07/20 12:39:13;;;;;;;4.25;3.85;;;39.50;1.00;;;;;;5107352;28;20214;-72
2022/07/20 12:41:41;;;;;;;4.75;4.13;;;39.00;1.00;;;;;;5102852;28;20259;-71
2022/07/20 12:44:28;;;;;;;7.38;4.28;;;39.30;1.00;;;;;;5095589;28;20233;-72
2022/07/20 12:46:57;;;;;;;5.22;4.03;;;39.40;1.00;;;;;;5096100;28;20192;-72
2022/07/20 12:49:27;;;;;;;6.25;4.18;;;39.40;1.00;;;;;;5098886;28;20206;-71
2022/07/20 12:51:55;;;;;;;5.40;3.70;;;39.60;1.00;;;;;;5097504;28;20244;-72
2022/07/20 12:54:23;;;;;;;7.20;4.03;;;39.10;1.00;;;;;;5098068;28;20229;-72
2022/07/20 12:56:50;;;;;;;7.32;4.15;;;40.10;1.00;;;;;;5101301;28;20209;-72
2022/07/20 12:59:17;;;;;;;4.80;4.15;;;40.00;1.00;;;;;;5100845;28;20230;-72